Latest Weather Observations for Cape Willoughby

IDS60801

Issued at 5:01 am CST Monday 16 July 2018 (issued every 10 minutes, with the page automatically refreshed every 10 minutes)

About weather observations | Map of weather stations | Latest weather observations for SA | Other Formats
Station Details ID: 022803 Name: CAPE WILLOUGHBY Lat: -35.84 Lon: 138.13 Height: 55.0 m
Data from the previous 72 hours. | See also: Recent months at Cape Willoughby
Date/Time
CST
Temp
°C
App
Temp
°C
Dew
Point
°C
Rel
Hum
%
Delta-T
°C
Wind Press
QNH
hPa
Press
MSL
hPa
Rain since
9am
mm
Dir  Spd
km/h
Gust
km/h
Spd
kts
Gust
kts
16/05:00am 11.7 7.4 9.4 86 1.2 W 22 28 12 15 1005.4 1005.4 0.2
16/04:30am 11.8 7.3 10.0 89 0.9 NW 24 35 13 19 1005.1 1005.1 0.2
16/04:00am 11.6 6.7 9.9 89 0.9 NW 26 33 14 18 1004.7 1004.7 0.2
16/03:30am 11.9 7.8 10.0 88 1.0 NW 22 30 12 16 1004.3 1004.3 0.2
16/03:00am 12.3 6.2 9.7 84 1.3 NW 32 41 17 22 1004.2 1004.2 0.0
16/02:30am 13.0 5.5 9.6 80 1.7 NW 39 52 21 28 1004.3 1004.3 0.0
16/02:00am 13.3 5.4 9.2 76 2.1 NW 41 63 22 34 1004.4 1004.4 0.0
16/01:58am 13.3 5.8 9.4 77 2.0 NW 39 63 21 34 1004.5 1004.5 0.0
16/01:30am 13.3 6.2 9.5 78 2.0 NW 37 52 20 28 1004.7 1004.7 0.0
16/01:00am 13.5 6.7 9.4 76 2.1 NW 35 44 19 24 1004.9 1004.9 0.0
16/12:30am 13.5 7.2 8.8 73 2.4 NW 32 41 17 22 1004.9 1004.9 0.0
16/12:00am 13.4 7.2 7.8 69 2.8 NW 30 41 16 22 1005.0 1005.0 0.0
 
Date/Time
CST
Temp
°C
App
Temp
°C
Dew
Point
°C
Rel
Hum
%
Delta-T
°C
Wind Press
QNH
hPa
Press
MSL
hPa
Rain since
9am
mm
Dir  Spd
km/h
Gust
km/h
Spd
kts
Gust
kts
15/11:30pm 13.5 6.2 7.1 65 3.1 NNW 35 46 19 25 1004.9 1004.9 0.0
15/11:00pm 13.7 5.2 7.0 64 3.3 NNW 41 52 22 28 1005.0 1005.0 0.0
15/10:34pm 13.8 4.8 7.3 65 3.2 NNW 44 65 24 35 1004.8 1004.8 0.0
15/10:30pm 13.8 4.4 7.3 65 3.2 NNW 46 65 25 35 1004.7 1004.7 0.0
15/10:00pm 13.7 3.9 7.0 64 3.3 NNW 48 65 26 35 1004.4 1004.4 0.0
15/09:37pm 13.7 5.7 7.5 66 3.0 NNW 39 59 21 32 1005.1 1005.1 0.0
15/09:30pm 13.6 5.3 7.6 67 3.0 NNW 41 59 22 32 1005.1 1005.1 0.0
15/09:00pm 13.5 4.6 7.5 67 3.0 N 44 54 24 29 1005.2 1005.2 0.0
15/08:30pm 13.8 4.3 6.9 63 3.4 N 46 57 25 31 1005.4 1005.4 0.0
15/08:00pm 13.7 5.1 6.3 61 3.5 NNW 41 50 22 27 1005.6 1005.6 0.0
15/07:30pm 13.5 6.6 6.6 63 3.3 NNW 32 41 17 22 1006.0 1006.0 0.0
15/07:00pm 13.4 6.6 6.7 64 3.2 NNW 32 41 17 22 1006.0 1006.0 0.0
15/06:30pm 13.2 5.4 6.8 65 3.1 N 37 43 20 23 1006.0 1006.0 0.0
15/06:00pm 13.3 5.6 6.9 65 3.1 N 37 44 20 24 1006.1 1006.1 0.0
15/05:30pm 13.0 5.2 6.8 66 3.0 NNW 37 44 20 24 1006.2 1006.2 0.0
15/05:00pm 12.9 6.1 7.1 68 2.8 N 32 35 17 19 1006.0 1006.0 0.0
15/04:30pm 12.7 4.3 7.4 70 2.6 N 41 46 22 25 1006.2 1006.2 0.0
15/04:00pm 13.8 6.0 8.2 69 2.8 N 39 44 21 24 1006.6 1006.6 0.0
15/03:30pm 13.2 5.0 8.1 71 2.5 NNW 41 52 22 28 1006.4 1006.4 0.0
15/03:00pm 13.0 4.7 7.7 70 2.6 NNW 41 54 22 29 1006.9 1006.9 0.0
15/02:30pm 12.7 4.7 7.6 71 2.5 N 39 46 21 25 1007.1 1007.1 0.0
15/02:00pm 12.8 4.4 7.5 70 2.6 N 41 50 22 27 1007.3 1007.3 0.0
15/01:30pm 12.9 4.7 8.0 72 2.4 NNW 41 46 22 25 1007.9 1007.9 0.0
15/01:00pm 13.4 6.2 7.8 69 2.8 NNW 35 43 19 23 1008.5 1008.5 0.0
15/12:30pm 13.4 5.6 8.3 71 2.6 NNW 39 44 21 24 1008.8 1008.8 0.0
15/12:00pm 13.3 5.5 8.4 72 2.5 N 39 44 21 24 1009.6 1009.6 0.0
15/11:30am 13.1 5.6 8.0 71 2.5 NNW 37 43 20 23 1010.5 1010.5 0.0
15/11:00am 12.9 5.8 8.0 72 2.4 NNW 35 41 19 22 1011.0 1011.0 0.0
15/10:30am 12.9 6.5 8.4 74 2.2 NNW 32 37 17 20 1011.2 1011.2 0.0
15/10:00am 12.4 5.6 7.9 74 2.2 NNW 33 37 18 20 1011.7 1011.7 0.0
15/09:30am 12.2 6.5 8.3 77 1.9 NNW 28 33 15 18 1011.9 1011.9 0.0
15/09:00am 11.9 6.6 8.4 79 1.7 NNW 26 32 14 17 1012.1 1012.1 0.0
15/08:30am 11.3 5.9 8.2 81 1.5 NNW 26 32 14 17 1012.3 1012.3 0.0
15/08:00am 10.4 5.3 7.6 83 1.3 N 24 28 13 15 1012.4 1012.4 0.0
15/07:30am 10.1 5.3 7.5 84 1.2 NNW 22 26 12 14 1012.4 1012.4 0.0
15/07:00am 10.3 5.3 7.9 85 1.2 NNW 24 30 13 16 1012.3 1012.3 0.0
15/06:30am 10.0 6.2 7.6 85 1.2 NNW 17 20 9 11 1012.4 1012.4 0.0
15/06:00am 10.8 5.2 8.6 86 1.1 NNW 28 32 15 17 1012.3 1012.3 0.0
15/05:30am 10.8 5.9 8.4 85 1.2 NNW 24 28 13 15 1012.4 1012.4 0.0
15/05:00am 10.9 6.1 8.7 86 1.1 N 24 26 13 14 1012.3 1012.3 0.0
15/04:30am 10.8 5.9 8.4 85 1.2 N 24 28 13 15 1012.5 1012.5 0.0
15/04:00am 11.2 6.6 9.5 89 0.9 N 24 28 13 15 1012.7 1012.7 0.0
15/03:30am 11.7 7.7 10.3 91 0.7 NNW 22 28 12 15 1012.9 1012.9 0.0
15/03:00am 11.8 7.8 10.4 91 0.7 N 22 26 12 14 1013.3 1013.3 0.0
15/02:30am 11.2 8.0 10.1 93 0.6 NNW 17 22 9 12 1013.6 1013.6 0.0
15/02:00am 10.7 7.0 9.5 92 0.6 NW 19 20 10 11 1013.8 1013.8 0.0
15/01:30am 11.2 7.0 9.6 90 0.8 WNW 22 22 12 12 1013.8 1013.8 0.0
15/01:00am 11.1 7.4 9.4 89 0.9 NW 19 20 10 11 1013.9 1013.9 0.0
15/12:30am 10.9 6.8 8.7 86 1.1 WNW 20 20 11 11 1014.1 1014.1 0.0
15/12:00am 10.9 6.8 8.5 85 1.2 WNW 20 22 11 12 1014.3 1014.3 0.0
 
Date/Time
CST
Temp
°C
App
Temp
°C
Dew
Point
°C
Rel
Hum
%
Delta-T
°C
Wind Press
QNH
hPa
Press
MSL
hPa
Rain since
9am
mm
Dir  Spd
km/h
Gust
km/h
Spd
kts
Gust
kts
14/11:30pm 10.7 6.6 8.8 88 0.9 WNW 20 22 11 12 1014.3 1014.3 0.0
14/11:00pm 10.9 7.0 9.5 91 0.7 WNW 20 22 11 12 1014.5 1014.5 0.0
14/10:30pm 10.9 7.0 9.3 90 0.8 WNW 20 22 11 12 1014.5 1014.5 0.0
14/10:00pm 11.1 6.8 9.2 88 1.0 WNW 22 24 12 13 1014.5 1014.5 0.0
14/09:30pm 11.5 8.2 9.4 87 1.1 NW 17 19 9 10 1014.6 1014.6 0.0
14/09:00pm 11.4 8.0 9.1 86 1.2 NW 17 19 9 10 1014.7 1014.7 0.0
14/08:30pm 11.8 8.1 9.4 85 1.2 NNW 19 24 10 13 1014.7 1014.7 0.0
14/08:00pm 11.9 8.2 9.3 84 1.3 NNW 19 22 10 12 1014.7 1014.7 0.0
14/07:30pm 11.8 7.8 9.2 84 1.3 NNW 20 24 11 13 1014.7 1014.7 0.0
14/07:00pm 12.1 7.7 9.1 82 1.5 NNW 22 28 12 15 1014.5 1014.5 0.0
14/06:30pm 12.5 7.8 9.1 80 1.7 NNW 24 32 13 17 1014.2 1014.2 0.0
14/06:00pm 12.9 6.4 9.0 77 2.0 NNW 33 39 18 21 1013.7 1013.7 0.0
14/05:30pm 12.8 6.2 8.5 75 2.1 NNW 33 41 18 22 1013.6 1013.6 0.0
14/05:00pm 13.1 5.7 8.2 72 2.4 NNW 37 41 20 22 1013.5 1013.5 0.0
14/04:30pm 13.3 5.7 7.7 69 2.8 NNW 37 46 20 25 1013.7 1013.7 0.0
14/04:00pm 13.1 5.5 7.5 69 2.7 NNW 37 46 20 25 1013.8 1013.8 0.0
14/03:30pm 13.7 5.7 7.5 66 3.0 NNW 39 52 21 28 1013.6 1013.6 0.0
14/03:00pm 13.4 4.3 8.5 72 2.5 NNW 46 56 25 30 1013.5 1013.5 0.0
14/02:30pm 13.6 3.9 8.9 73 2.4 NNW 50 57 27 31 1013.6 1013.6 0.0
14/02:00pm 12.9 3.4 8.4 74 2.2 NNW 48 57 26 31 1013.9 1013.9 0.0
14/01:30pm 13.7 5.0 8.3 70 2.7 NNW 44 57 24 31 1014.3 1014.3 0.0
14/01:00pm 13.6 3.0 8.4 71 2.6 NNW 54 61 29 33 1014.4 1014.4 0.0
14/12:30pm 13.2 1.9 8.1 71 2.5 NNW 57 67 31 36 1014.6 1014.6 0.0
14/12:00pm 13.1 0.9 7.5 69 2.7 NNW 61 72 33 39 1014.8 1014.8 0.0
14/11:30am 13.3 2.0 8.0 70 2.6 NNW 57 69 31 37 1015.3 1015.4 0.0
14/11:00am 12.9 -0.4 7.4 69 2.7 NNW 67 78 36 42 1015.1 1015.2 0.0
14/10:30am 12.6 -1.2 7.1 69 2.7 NNW 69 80 37 43 1015.5 1015.6 0.0
14/10:05am 12.6 1.4 7.7 72 2.4 NNW 56 82 30 44 1015.7 1015.8 0.0
14/10:00am 12.6 1.8 7.7 72 2.4 NNW 54 69 29 37 1015.9 1016.0 0.0
14/09:30am 11.7 0.0 7.8 77 1.9 NNW 59 70 32 38 1016.2 1016.3 0.0
14/09:00am 11.8 -0.2 8.1 78 1.8 NNW 61 69 33 37 1016.1 1016.2 0.0
14/08:30am 12.1 0.8 8.0 76 2.0 NNW 57 67 31 36 1016.0 1016.1 0.0
14/08:00am 11.8 1.1 8.1 78 1.8 N 54 65 29 35 1016.1 1016.2 0.0
14/07:30am 11.3 0.9 7.8 79 1.7 NNW 52 59 28 32 1016.3 1016.4 0.0
14/07:00am 11.1 1.5 8.1 82 1.5 N 48 56 26 30 1016.7 1016.8 0.0
14/06:30am 10.9 1.7 8.1 83 1.4 N 46 52 25 28 1016.7 1016.8 0.0
14/06:00am 10.8 2.1 7.9 82 1.4 N 43 48 23 26 1016.9 1017.0 0.0
14/05:30am 10.7 3.1 7.6 81 1.5 N 37 44 20 24 1017.4 1017.5 0.0
14/05:00am 10.9 3.7 7.8 81 1.5 N 35 43 19 23 1017.6 1017.7 0.0
14/04:30am 10.7 3.4 7.0 78 1.8 N 35 43 19 23 1017.4 1017.5 0.0
14/04:00am 10.5 4.5 7.2 80 1.6 N 28 33 15 18 1017.9 1018.0 0.0
14/03:30am 10.3 2.9 6.8 79 1.6 N 35 43 19 23 1017.7 1017.8 0.0
14/03:00am 10.7 2.2 7.0 78 1.8 N 41 48 22 26 1017.5 1017.6 0.0
14/02:30am 10.7 2.2 7.0 78 1.8 N 41 48 22 26 1017.9 1018.0 0.0
14/02:00am 11.1 3.3 6.8 75 2.0 N 37 43 20 23 1018.4 1018.5 0.0
14/01:30am 10.5 5.1 6.5 76 1.9 N 24 32 13 17 1018.9 1019.0 0.0
14/01:00am 10.8 4.6 6.0 72 2.2 N 28 33 15 18 1019.2 1019.3 0.0
14/12:30am 10.6 5.5 5.8 72 2.2 NNE 22 28 12 15 1019.6 1019.7 0.0
14/12:00am 10.8 5.7 5.8 71 2.3 NNE 22 28 12 15 1020.0 1020.0 0.0
 
Date/Time
CST
Temp
°C
App
Temp
°C
Dew
Point
°C
Rel
Hum
%
Delta-T
°C
Wind Press
QNH
hPa
Press
MSL
hPa
Rain since
9am
mm
Dir  Spd
km/h
Gust
km/h
Spd
kts
Gust
kts
13/11:30pm 11.1 5.6 6.0 71 2.4 N 24 28 13 15 1020.5 1020.5 0.0
13/11:00pm 10.6 5.7 6.9 78 1.8 NNE 22 26 12 14 1020.7 1020.7 0.0
13/10:30pm 10.5 4.8 6.6 77 1.8 NNE 26 30 14 16 1020.7 1020.7 0.0
13/10:00pm 10.9 5.2 6.5 74 2.1 NNE 26 30 14 16 1020.8 1020.8 0.0
13/09:30pm 11.3 5.2 6.6 73 2.2 N 28 32 15 17 1021.0 1021.0 0.0
13/09:00pm 10.8 6.0 5.6 70 2.4 N 20 28 11 15 1021.1 1021.1 0.0
13/08:30pm 9.6 6.3 4.6 71 2.2 NNW 11 17 6 9 1021.3 1021.3 0.0
13/08:00pm 9.3 6.2 5.7 78 1.6 NNW 11 15 6 8 1021.2 1021.2 0.0
13/07:30pm 9.9 6.3 6.6 80 1.5 N 15 19 8 10 1021.1 1021.1 0.0
13/07:00pm 10.1 6.0 6.3 77 1.8 N 17 20 9 11 1021.0 1021.0 0.0
13/06:30pm 10.3 6.8 7.2 81 1.5 N 15 19 8 10 1020.8 1020.8 0.0
13/06:00pm 10.1 7.3 7.0 81 1.5 NNE 11 15 6 8 1020.6 1020.6 0.0
13/05:30pm 10.0 7.1 6.7 80 1.5 NNE 11 13 6 7 1020.7 1020.7 0.0
13/05:00pm 10.3 7.5 6.8 79 1.7 N 11 15 6 8 1020.8 1020.8 0.0
13/04:30pm 11.1 8.7 7.0 76 1.9 N 9 11 5 6 1020.7 1020.7 0.0
13/04:00pm 11.5 9.2 7.4 76 2.0 NNE 9 13 5 7 1020.7 1020.7 0.0
13/03:30pm 12.0 9.0 7.7 75 2.1 N 13 17 7 9 1020.8 1020.8 0.0
13/03:00pm 12.4 9.3 8.7 78 1.8 N 15 19 8 10 1020.9 1020.9 0.0
13/02:30pm 12.3 9.4 8.2 76 2.0 N 13 17 7 9 1021.0 1021.0 0.0
13/02:00pm 12.1 9.8 7.4 73 2.3 NNE 9 11 5 6 1021.2 1021.2 0.0
13/01:30pm 11.9 9.5 7.0 72 2.3 NE 9 11 5 6 1021.7 1021.7 0.0
13/01:00pm 11.9 9.9 7.0 72 2.4 NE 7 11 4 6 1022.0 1022.0 0.0
13/12:30pm 11.5 9.4 6.6 72 2.3 NE 7 11 4 6 1022.5 1022.5 0.0
13/12:00pm 11.3 8.8 6.6 73 2.2 NE 9 13 5 7 1023.0 1023.0 0.0
13/11:30am 11.3 8.4 6.6 73 2.2 NE 11 15 6 8 1023.3 1023.3 0.0
13/11:00am 11.3 8.1 7.0 75 2.1 NE 13 17 7 9 1023.5 1023.5 0.0
13/10:30am 11.1 7.9 6.8 75 2.0 NE 13 17 7 9 1023.7 1023.7 0.0
13/10:00am 11.1 8.2 6.5 73 2.2 NE 11 15 6 8 1023.9 1023.9 0.0
13/09:30am 11.0 8.0 6.2 72 2.2 NE 11 13 6 7 1023.8 1023.8 0.0
13/09:00am 10.6 7.6 5.8 72 2.2 NNE 11 15 6 8 1023.8 1023.8 0.0
13/08:30am 10.2 7.2 5.8 74 2.0 NNE 11 13 6 7 1023.7 1023.7 0.0
13/08:00am 9.6 6.1 5.6 76 1.8 NE 13 15 7 8 1023.5 1023.5 0.0
13/07:30am 9.3 5.9 5.7 78 1.6 NE 13 17 7 9 1023.2 1023.2 0.0
13/07:00am 9.0 5.9 5.6 79 1.5 NE 11 15 6 8 1023.2 1023.2 0.0
13/06:30am 9.2 5.7 5.6 78 1.6 NE 13 17 7 9 1022.9 1022.9 0.0
13/06:00am 9.1 5.6 5.3 77 1.7 NNE 13 17 7 9 1022.6 1022.6 0.0
13/05:30am 9.1 5.5 4.9 75 1.9 NNE 13 17 7 9 1022.3 1022.3 0.0

Other Formats:

Comma delimited format used in spreadsheet applications
http://www.bom.gov.au/fwo/IDS60801/IDS60801.94822.axf

JavaScript Object Notation format (JSON) in row-major order
http://www.bom.gov.au/fwo/IDS60801/IDS60801.94822.json